Time;durP1;ratioP1;P1;durP2;ratioP2;P2;SDS_P1;SDS_P2;PMS_P1;PMS_P2;Temp;Humidity;BMP_temperature;BMP_pressure;BME280_temperature;BME280_humidity;BME280_pressure;Samples;Min_cycle;Max_cycle;Signal;HPM_P1;HPM_P2
2023/11/24 00:00:09;;;;;;;31.02;7.75;;;12.50;99.90;;;12.64;76.77;101461.59;5094637;28;20496;-70
2023/11/24 00:02:40;;;;;;;30.77;7.47;;;12.50;99.90;;;12.52;80.00;101477.59;5094644;28;20534;-70
2023/11/24 00:05:10;;;;;;;29.58;7.70;;;12.40;99.90;;;12.27;80.72;101482.03;5112837;28;20049;-70
2023/11/24 00:07:39;;;;;;;38.67;8.00;;;12.20;99.90;;;11.95;81.02;101445.84;5094581;28;20525;-69
2023/11/24 00:10:09;;;;;;;29.50;6.70;;;12.00;99.90;;;12.24;81.39;101475.88;5094603;28;20051;-70
2023/11/24 00:12:37;;;;;;;26.48;6.60;;;12.10;99.90;;;12.03;81.86;101482.09;5114476;28;20043;-70
2023/11/24 00:15:07;;;;;;;30.45;6.60;;;12.00;99.90;;;12.12;81.49;101475.88;5116957;28;20051;-70
2023/11/24 00:17:37;;;;;;;24.92;6.35;;;12.00;99.90;;;11.71;82.74;101471.47;5116628;28;20092;-70
2023/11/24 00:20:10;;;;;;;31.38;6.50;;;11.60;99.90;;;11.59;83.18;101474.06;5116670;28;20039;-70
2023/11/24 00:22:38;;;;;;;31.52;6.30;;;11.50;99.90;;;11.54;83.97;101480.25;5116625;28;20062;-70
2023/11/24 00:25:09;;;;;;;29.00;6.40;;;11.40;99.90;;;11.53;84.05;101484.69;5116119;28;20039;-70
2023/11/24 00:27:37;;;;;;;25.80;6.53;;;11.40;99.90;;;11.33;85.03;101481.09;5116174;28;20085;-69
2023/11/24 00:30:08;;;;;;;25.85;5.97;;;11.20;99.90;;;11.36;85.93;101477.59;5116089;28;20131;-70
2023/11/24 00:32:36;;;;;;;26.98;6.82;;;11.20;99.90;;;11.27;85.97;101467.84;5098126;28;20060;-69
2023/11/24 00:35:06;;;;;;;25.77;6.35;;;11.10;99.90;;;11.33;86.72;101469.63;5097976;28;20131;-70
2023/11/24 00:37:36;;;;;;;30.50;7.32;;;11.10;99.90;;;11.23;88.98;101463.41;5116038;28;20454;-70
2023/11/24 00:40:07;;;;;;;32.63;6.82;;;11.10;99.90;;;10.98;90.17;101451.00;5097865;28;20048;-70
2023/11/24 00:42:36;;;;;;;29.48;6.78;;;10.90;99.90;;;11.03;90.40;101449.25;5116464;28;20404;-70
2023/11/24 00:45:06;;;;;;;20.90;5.95;;;10.90;99.90;;;10.58;88.96;101417.34;5115855;28;20039;-70
2023/11/24 00:47:35;;;;;;;24.60;5.80;;;10.70;99.90;;;10.77;88.63;101443.88;5116070;28;20044;-69
2023/11/24 00:50:05;;;;;;;31.67;6.65;;;10.60;99.90;;;10.76;87.60;101433.28;5115762;28;20113;-70
2023/11/24 00:52:34;;;;;;;;;;;10.70;99.90;;;10.58;87.63;101430.56;5097913;28;20086;-70
2023/11/24 00:55:04;;;;;;;24.42;6.30;;;10.40;99.90;;;10.69;87.28;101416.50;5097658;28;19969;-70
2023/11/24 00:57:33;;;;;;;31.83;6.78;;;10.50;99.90;;;10.62;88.43;101441.16;5115794;28;20096;-70
2023/11/24 01:00:04;;;;;;;28.98;6.32;;;10.40;99.90;;;10.82;87.68;101436.81;5115835;28;20412;-71
2023/11/24 01:02:33;;;;;;;20.15;6.05;;;10.60;99.90;;;10.83;86.15;101448.31;5115802;28;20043;-70
2023/11/24 01:05:02;;;;;;;19.30;5.30;;;10.60;99.90;;;10.90;85.13;101447.44;5115534;28;20450;-70
2023/11/24 01:07:30;;;;;;;15.43;4.78;;;10.70;99.90;;;10.75;83.58;101434.16;5115584;28;20039;-70
2023/11/24 01:09:59;;;;;;;18.23;5.05;;;10.60;99.90;;;10.73;82.64;101434.16;5115646;28;20088;-70
2023/11/24 01:12:29;;;;;;;14.45;4.40;;;10.60;99.90;;;10.64;81.87;101435.88;5097265;28;20040;-70
2023/11/24 01:14:57;;;;;;;14.98;4.75;;;10.50;99.90;;;10.61;81.13;101438.50;5115337;28;20463;-69
2023/11/24 01:17:26;;;;;;;17.23;5.07;;;10.60;99.90;;;10.70;81.85;101443.84;5115503;28;20118;-70
2023/11/24 01:19:54;;;;;;;18.85;5.07;;;10.60;99.90;;;10.62;83.25;101427.06;5115401;28;20047;-69
2023/11/24 01:22:24;;;;;;;15.63;5.05;;;10.50;99.90;;;10.78;84.15;101442.13;5115433;28;20101;-70
2023/11/24 01:24:53;;;;;;;18.83;4.88;;;10.60;99.90;;;10.50;85.14;101434.91;5114578;28;20035;-69
2023/11/24 01:27:21;;;;;;;23.63;5.50;;;10.40;99.90;;;10.48;86.34;101429.63;5115213;28;20044;-69
2023/11/24 01:29:51;;;;;;;21.08;5.50;;;10.40;99.90;;;10.51;86.53;101415.53;5096945;28;20448;-69
2023/11/24 01:32:19;;;;;;;14.90;4.90;;;10.30;99.90;;;10.32;86.16;101445.38;5115152;28;20044;-69
2023/11/24 01:34:48;;;;;;;18.38;5.43;;;10.20;99.90;;;10.66;86.78;101466.75;5115149;28;20432;-69
2023/11/24 01:37:16;;;;;;;15.70;4.05;;;10.50;99.90;;;10.66;88.46;101456.19;5114795;28;20051;-69
2023/11/24 01:39:45;;;;;;;12.60;3.92;;;10.50;99.90;;;10.84;89.28;101452.69;5115090;28;20044;-70
2023/11/24 01:42:13;;;;;;;13.90;4.40;;;10.70;99.90;;;10.64;89.90;101454.41;5096648;28;20062;-70
2023/11/24 01:44:42;;;;;;;16.67;4.60;;;10.60;99.90;;;10.61;90.81;101454.38;5114702;28;20039;-69
2023/11/24 01:47:12;;;;;;;19.58;4.65;;;10.50;99.90;;;10.65;90.65;101440.28;5114602;28;20404;-69
2023/11/24 01:49:41;;;;;;;13.73;4.32;;;10.50;99.90;;;10.52;91.79;101441.09;5114808;28;20443;-69
2023/11/24 01:52:09;;;;;;;10.68;4.35;;;10.40;99.90;;;10.40;92.64;101439.28;5114816;28;20089;-70
2023/11/24 01:54:39;;;;;;;16.90;4.90;;;10.30;99.90;;;10.52;92.97;101426.13;5114412;28;20050;-69
2023/11/24 01:57:08;;;;;;;15.70;4.43;;;10.30;99.90;;;10.11;93.05;101421.47;5096327;28;20047;-70
2023/11/24 01:59:37;;;;;;;24.55;4.97;;;10.10;99.90;;;10.14;93.72;101409.19;5095898;28;20400;-69
2023/11/24 02:02:06;;;;;;;21.42;5.55;;;10.00;99.90;;;10.23;94.00;101414.50;5096377;28;20058;-69
2023/11/24 02:04:36;;;;;;;19.90;4.78;;;10.00;99.90;;;10.18;92.99;101396.88;5096271;28;20534;-69
2023/11/24 02:07:05;;;;;;;20.10;4.90;;;10.00;99.90;;;10.07;93.04;101406.44;5114509;28;20051;-70
2023/11/24 02:09:34;;;;;;;18.83;5.07;;;9.90;99.90;;;10.06;92.65;101402.03;5113983;28;20047;-70
2023/11/24 02:12:02;;;;;;;24.45;5.65;;;9.90;99.90;;;10.27;92.14;101405.72;5114424;28;20043;-70
2023/11/24 02:14:31;;;;;;;21.63;5.10;;;10.00;99.90;;;10.27;91.25;101407.47;5096037;28;20042;-69
2023/11/24 02:17:00;;;;;;;17.13;4.68;;;10.10;99.90;;;10.35;90.57;101409.31;5114351;28;20051;-70
2023/11/24 02:19:29;;;;;;;22.67;5.07;;;10.20;99.90;;;10.31;89.14;101398.69;5095914;28;20065;-69
2023/11/24 02:21:58;;;;;;;27.25;5.20;;;10.20;99.90;;;10.23;88.75;101400.41;5096294;28;20112;-69
2023/11/24 02:24:29;;;;;;;22.40;5.28;;;10.10;99.90;;;10.28;88.29;101409.25;5095609;28;20097;-69
2023/11/24 02:26:59;;;;;;;16.48;4.82;;;10.10;99.90;;;10.33;87.32;101400.47;5095829;28;20054;-69
2023/11/24 02:29:28;;;;;;;20.70;4.80;;;10.10;99.90;;;10.39;86.88;101394.31;5113683;28;20492;-69
2023/11/24 02:31:56;;;;;;;21.67;4.90;;;10.20;99.90;;;10.42;86.06;101392.56;5095824;28;20047;-70
2023/11/24 02:34:24;;;;;;;15.55;4.80;;;10.20;99.90;;;10.60;84.91;101397.06;5095666;28;20404;-69
2023/11/24 02:36:53;;;;;;;21.88;5.25;;;10.40;99.90;;;10.47;84.56;101387.31;5094838;28;20567;-69
2023/11/24 02:39:23;;;;;;;16.80;4.72;;;10.30;99.90;;;10.46;84.41;101380.25;5095622;28;20054;-69
2023/11/24 02:41:53;;;;;;;16.88;4.53;;;10.30;99.90;;;10.65;83.61;101380.31;5095571;28;20471;-69
2023/11/24 02:44:21;;;;;;;18.20;4.70;;;10.40;99.90;;;10.53;82.55;101367.03;5113538;28;20515;-69
2023/11/24 02:46:50;;;;;;;22.17;5.38;;;10.40;99.90;;;10.41;81.88;101358.19;5113834;28;20039;-70
2023/11/24 02:49:18;;;;;;;16.77;4.63;;;10.30;99.90;;;10.63;80.87;101363.56;5113540;28;20082;-69
2023/11/24 02:51:47;;;;;;;14.40;4.43;;;10.40;99.90;;;10.50;79.65;101345.88;5095385;28;20058;-69
2023/11/24 02:54:16;;;;;;;18.23;4.63;;;10.40;99.90;;;10.56;78.42;101339.72;5095412;28;20047;-69
2023/11/24 02:56:45;;;;;;;13.57;3.97;;;10.40;99.90;;;10.73;77.14;101341.53;5113339;28;20399;-69
2023/11/24 02:59:14;;;;;;;16.02;4.50;;;10.50;99.90;;;10.70;76.56;101343.31;5113596;28;20550;-69
2023/11/24 03:01:43;;;;;;;18.23;4.72;;;10.60;99.90;;;10.85;76.94;101340.69;5113531;28;20048;-69
2023/11/24 03:04:12;;;;;;;18.60;4.40;;;10.60;99.90;;;10.76;76.26;101330.09;5095260;28;20061;-70
2023/11/24 03:06:41;;;;;;;18.63;4.72;;;10.60;99.90;;;10.76;76.21;101327.44;5113530;28;20039;-69
2023/11/24 03:09:10;;;;;;;15.57;4.43;;;10.60;99.90;;;10.69;75.71;101329.19;5113419;28;20039;-69
2023/11/24 03:11:39;;;;;;;13.55;4.53;;;10.60;99.90;;;10.48;76.17;101318.56;5113473;28;20110;-69
2023/11/24 03:14:07;;;;;;;16.05;4.47;;;10.40;99.90;;;10.65;75.40;101323.88;5113124;28;20060;-69
2023/11/24 03:16:37;;;;;;;20.13;4.57;;;10.40;99.90;;;10.63;74.88;101337.09;5113134;28;20566;-70
2023/11/24 03:19:05;;;;;;;13.90;3.97;;;10.50;99.90;;;10.65;73.95;101319.47;5113371;28;20040;-70
2023/11/24 03:21:34;;;;;;;10.68;4.18;;;10.50;99.90;;;10.53;72.05;101335.31;5113337;28;20037;-69
2023/11/24 03:24:03;;;;;;;20.00;4.68;;;10.50;99.90;;;10.60;70.91;101315.06;5113325;28;20106;-69
2023/11/24 03:26:31;;;;;;;12.20;4.22;;;10.50;99.90;;;10.64;71.39;101316.84;5112311;28;20052;-69
2023/11/24 03:29:00;;;;;;;10.82;4.15;;;10.50;99.90;;;10.72;71.83;101308.00;5094950;28;20083;-69
2023/11/24 03:31:28;;;;;;;16.65;4.68;;;10.50;99.90;;;10.74;72.34;101305.41;5094932;28;20047;-69
2023/11/24 03:33:58;;;;;;;18.40;4.47;;;10.60;99.90;;;10.79;72.86;101298.34;5113251;28;20051;-69
2023/11/24 03:36:27;;;;;;;13.88;4.78;;;10.60;99.90;;;10.84;73.11;101304.50;5113445;28;20042;-69
2023/11/24 03:38:55;;;;;;;16.88;5.35;;;10.60;99.90;;;10.74;73.32;101308.91;5112921;28;20053;-69
2023/11/24 03:41:23;;;;;;;9.90;4.00;;;10.60;99.90;;;10.64;74.77;101301.84;5112856;28;20123;-70
2023/11/24 03:43:52;;;;;;;10.35;4.00;;;10.50;99.90;;;10.64;76.55;101290.38;5094873;28;20138;-69
2023/11/24 03:46:20;;;;;;;9.90;4.20;;;10.50;99.90;;;9.67;74.55;101172.88;5094849;28;20043;-69
2023/11/24 03:48:49;;;;;;;13.02;4.22;;;10.30;99.90;;;10.47;74.45;101313.25;5098718;28;20142;-69
2023/11/24 03:51:20;;;;;;;11.13;3.90;;;10.30;99.90;;;10.52;75.07;101306.22;5117236;28;20060;-70
2023/11/24 03:53:49;;;;;;;10.98;4.00;;;10.30;99.90;;;10.34;76.89;101295.56;5098848;28;20048;-70
2023/11/24 03:56:17;;;;;;;14.00;4.15;;;10.20;99.90;;;10.34;77.54;101308.78;5117357;28;20079;-69
2023/11/24 03:58:46;;;;;;;11.65;4.63;;;10.20;99.90;;;10.28;79.10;101293.78;5116952;28;20070;-69
2023/11/24 04:01:15;;;;;;;14.57;4.80;;;10.20;99.90;;;10.35;80.94;101297.34;5098562;28;20047;-70
2023/11/24 04:03:46;;;;;;;21.92;5.00;;;10.20;99.90;;;10.29;81.32;101285.00;5116937;28;20040;-69
2023/11/24 04:06:15;;;;;;;18.55;5.35;;;10.20;99.90;;;10.29;81.32;101285.00;5116972;28;20088;-69
2023/11/24 04:08:45;;;;;;;16.20;4.43;;;10.10;99.90;;;10.41;79.50;101286.78;5116790;28;20444;-69
2023/11/24 04:11:14;;;;;;;19.15;5.32;;;10.20;99.90;;;10.34;78.81;101298.22;5098509;28;20055;-69
2023/11/24 04:13:42;;;;;;;18.25;5.00;;;10.20;99.90;;;10.34;79.43;101292.94;5116805;28;20035;-69
2023/11/24 04:16:10;;;;;;;19.05;4.60;;;10.20;99.90;;;10.09;83.07;101305.13;5116682;28;20071;-69
2023/11/24 04:18:39;;;;;;;13.23;4.13;;;9.90;99.90;;;9.83;85.18;101302.34;5116667;28;20488;-69
2023/11/24 04:21:08;;;;;;;16.05;4.43;;;9.70;99.90;;;9.71;86.92;101290.84;5116637;28;20036;-69
2023/11/24 04:23:37;;;;;;;13.80;4.03;;;9.50;99.90;;;9.51;87.70;101280.16;5098274;28;20052;-70
2023/11/24 04:26:07;;;;;;;13.38;3.90;;;9.40;99.90;;;9.58;88.11;101279.31;5116615;28;20044;-70
2023/11/24 04:28:35;;;;;;;15.10;3.83;;;9.40;99.90;;;9.51;87.95;101277.53;5116552;28;20043;-69
2023/11/24 04:31:04;;;;;;;13.27;4.70;;;9.40;99.90;;;9.42;88.25;101266.03;5116096;28;20449;-69
2023/11/24 04:33:32;;;;;;;14.38;4.63;;;9.30;99.90;;;9.54;88.39;101274.91;5116046;28;20118;-69
2023/11/24 04:36:01;;;;;;;13.20;4.50;;;9.30;99.90;;;9.55;89.24;101267.88;5098033;28;20047;-69
2023/11/24 04:38:29;;;;;;;14.63;4.05;;;9.30;99.90;;;9.65;88.99;101267.94;5116009;28;20115;-69
2023/11/24 04:40:58;;;;;;;17.95;4.95;;;9.40;99.90;;;9.92;88.59;101269.84;5097969;28;20048;-70
2023/11/24 04:43:27;;;;;;;15.50;4.50;;;9.70;99.90;;;10.09;88.45;101272.53;5116136;28;20075;-69
2023/11/24 04:45:56;;;;;;;13.30;4.97;;;9.80;99.90;;;9.86;89.09;101296.22;5116139;28;20036;-69
2023/11/24 04:48:24;;;;;;;21.45;4.90;;;9.80;99.90;;;9.49;92.19;101289.84;5115826;28;20044;-69
2023/11/24 04:50:53;;;;;;;21.13;5.10;;;9.50;99.90;;;9.37;93.40;101284.47;5116021;28;20096;-69
2023/11/24 04:53:22;;;;;;;16.23;4.35;;;9.30;99.90;;;9.48;93.82;101297.75;5115698;28;20044;-69
2023/11/24 04:55:50;;;;;;;13.68;4.05;;;9.30;99.90;;;9.34;93.97;101294.13;5115945;28;20054;-69
2023/11/24 04:58:19;;;;;;;18.02;4.95;;;9.20;99.90;;;9.09;94.86;101271.94;5092975;28;20075;-69
2023/11/24 05:00:48;;;;;;;20.80;4.85;;;9.10;99.90;;;9.19;95.11;101276.44;5095123;28;20815;-69
2023/11/24 05:03:17;;;;;;;12.83;4.63;;;9.10;99.90;;;9.18;95.27;101255.28;5095472;28;20044;-69
2023/11/24 05:05:45;;;;;;;19.83;5.15;;;9.10;99.90;;;9.24;95.40;101255.31;5095094;28;20316;-69
2023/11/24 05:08:14;;;;;;;14.88;4.22;;;9.10;99.90;;;9.13;95.22;101262.28;5095031;28;20161;-69
2023/11/24 05:10:42;;;;;;;22.45;5.18;;;9.00;99.90;;;9.30;94.09;101258.91;5094880;28;20040;-69
2023/11/24 05:13:11;;;;;;;21.58;4.55;;;9.10;99.90;;;9.29;93.63;101282.66;5094916;28;20072;-69
2023/11/24 05:15:39;;;;;;;19.25;5.28;;;9.20;99.90;;;8.97;92.37;101275.38;5095244;28;20382;-69
2023/11/24 05:18:09;;;;;;;18.23;5.15;;;8.90;99.90;;;9.07;94.05;101268.41;5094844;28;20036;-69
2023/11/24 05:20:38;;;;;;;13.87;4.80;;;8.90;99.90;;;9.18;93.04;101258.81;5095107;28;20056;-69
2023/11/24 05:23:06;;;;;;;15.95;4.80;;;9.00;99.90;;;8.95;91.74;101231.38;5094702;28;20294;-69
2023/11/24 05:25:35;;;;;;;12.00;4.25;;;9.00;99.90;;;9.06;91.14;101245.53;5094918;28;20084;-69
2023/11/24 05:28:04;;;;;;;23.33;5.20;;;8.90;99.90;;;9.28;91.35;101228.09;5094662;28;20489;-69
2023/11/24 05:30:32;;;;;;;16.27;4.78;;;9.10;99.90;;;9.20;91.01;101227.16;5093473;28;20072;-70
2023/11/24 05:33:01;;;;;;;26.25;5.32;;;9.10;99.90;;;9.23;90.60;101233.34;5094524;28;20044;-70
2023/11/24 05:35:31;;;;;;;15.77;5.28;;;9.10;99.90;;;9.32;89.94;101235.16;5094817;28;20071;-70
2023/11/24 05:37:59;;;;;;;17.88;4.88;;;9.10;99.90;;;9.37;89.95;101214.97;5094736;28;20064;-70
2023/11/24 05:40:28;;;;;;;23.80;5.97;;;9.20;99.90;;;9.41;88.16;101222.88;5093647;28;20044;-69
2023/11/24 05:42:56;;;;;;;20.88;5.10;;;9.30;99.90;;;9.65;84.96;101220.41;5094337;28;20048;-69
2023/11/24 05:45:25;;;;;;;19.27;5.60;;;9.40;99.90;;;9.59;82.02;101217.72;5094861;28;20491;-69
2023/11/24 05:47:53;;;;;;;15.77;4.78;;;9.50;99.90;;;9.56;78.62;101209.78;5093228;28;20047;-69
2023/11/24 05:50:22;;;;;;;20.85;5.25;;;9.50;99.90;;;9.61;77.88;101215.09;5094676;28;20055;-69
2023/11/24 05:52:52;;;;;;;25.08;5.20;;;9.50;99.90;;;9.79;77.06;101194.91;5093176;28;20055;-69
2023/11/24 05:55:21;;;;;;;18.13;5.43;;;9.70;99.90;;;9.90;77.23;101209.06;5094109;28;20089;-69
2023/11/24 05:57:49;;;;;;;21.02;5.03;;;9.70;99.90;;;9.87;77.59;101211.66;5096802;28;20370;-69
2023/11/24 06:00:19;;;;;;;24.67;5.22;;;9.70;99.90;;;9.95;77.76;101217.88;5114705;28;20054;-69
2023/11/24 06:02:47;;;;;;;17.30;4.68;;;9.80;99.90;;;10.17;77.41;101233.84;5114341;28;20108;-69
2023/11/24 06:05:16;;;;;;;17.67;4.75;;;10.00;99.90;;;10.02;78.66;101208.22;5114337;28;20042;-69
2023/11/24 06:07:45;;;;;;;15.93;3.80;;;9.90;99.90;;;9.96;77.61;101231.97;5096256;28;20036;-69
2023/11/24 06:10:18;;;;;;;18.45;4.97;;;9.90;99.90;;;9.79;78.10;101225.75;5096041;28;20044;-69
2023/11/24 06:12:47;;;;;;;21.10;4.95;;;9.70;99.90;;;9.83;79.16;101227.53;5114155;28;20035;-69
2023/11/24 06:15:15;;;;;;;14.88;4.78;;;9.60;99.90;;;9.83;79.37;101223.09;5114142;28;20036;-69
2023/11/24 06:17:44;;;;;;;21.55;4.65;;;9.70;99.90;;;9.73;78.58;101216.03;5113971;28;20096;-69
2023/11/24 06:20:12;;;;;;;12.10;4.57;;;9.60;99.90;;;9.76;77.71;101220.44;5113860;28;20047;-69
2023/11/24 06:22:41;;;;;;;18.00;4.85;;;9.60;99.90;;;9.71;76.65;101216.91;5113623;28;20035;-69
2023/11/24 06:25:13;;;;;;;25.65;5.43;;;9.60;99.90;;;9.74;76.80;101201.94;5113969;28;20047;-69
2023/11/24 06:27:45;;;;;;;17.90;4.90;;;9.60;99.90;;;9.79;75.99;101201.97;5095899;28;20048;-69
2023/11/24 06:30:14;;;;;;;16.45;4.40;;;9.70;99.90;;;9.86;75.82;101204.63;5114023;28;20097;-69
2023/11/24 06:32:42;;;;;;;21.20;5.78;;;9.70;99.90;;;9.89;74.84;101211.69;5114019;28;20134;-69
2023/11/24 06:35:10;;;;;;;23.80;5.50;;;9.70;99.90;;;10.04;74.78;101212.59;5114262;28;20467;-69
2023/11/24 06:37:40;;;;;;;26.58;6.05;;;9.80;99.90;;;10.19;74.62;101225.03;5114256;28;20047;-69
2023/11/24 06:40:11;;;;;;;22.08;5.55;;;10.00;99.90;;;10.02;74.88;101216.16;5113639;28;20458;-69
2023/11/24 06:42:40;;;;;;;22.20;5.93;;;9.90;99.90;;;9.78;78.27;101230.13;5114204;28;20039;-69
2023/11/24 06:45:12;;;;;;;20.15;5.40;;;9.70;99.90;;;9.80;81.82;101212.53;5113809;28;20036;-69
2023/11/24 06:47:42;;;;;;;21.33;5.50;;;9.70;99.90;;;9.48;84.62;101229.09;5113595;28;20049;-69
2023/11/24 06:50:12;;;;;;;27.95;5.88;;;9.40;99.90;;;9.13;86.84;101199.84;5113610;28;20043;-70
2023/11/24 06:52:40;;;;;;;20.23;5.38;;;9.20;99.90;;;9.42;88.68;101247.53;5113432;28;20100;-69
2023/11/24 06:55:11;;;;;;;22.88;6.05;;;9.20;99.90;;;9.55;88.85;101245.00;5113827;28;20048;-69
2023/11/24 06:57:39;;;;;;;26.42;5.57;;;9.40;99.90;;;9.66;88.28;101239.75;5113700;28;20046;-69
2023/11/24 07:00:17;;;;;;;22.55;5.43;;;9.50;99.90;;;9.67;88.04;101244.16;5113317;28;20036;-69
2023/11/24 07:02:46;;;;;;;19.48;4.88;;;9.50;99.90;;;9.54;87.81;101240.56;5113277;28;20135;-69
2023/11/24 07:05:14;;;;;;;19.45;4.68;;;9.40;99.90;;;9.59;87.40;101244.13;5113532;28;20040;-70
2023/11/24 07:07:43;;;;;;;16.60;4.28;;;9.50;99.90;;;9.65;86.54;101238.00;5113192;28;20051;-70
2023/11/24 07:10:13;;;;;;;9.40;4.38;;;9.50;99.90;;;9.33;86.14;101251.00;5113433;28;20097;-69
2023/11/24 07:12:43;;;;;;;11.55;4.22;;;9.30;99.90;;;9.28;84.89;101236.91;5113171;28;20050;-69
2023/11/24 07:15:14;;;;;;;10.55;3.95;;;9.20;99.90;;;9.16;83.33;101235.91;5113119;28;20039;-69
2023/11/24 07:17:43;;;;;;;11.27;4.30;;;9.20;99.90;;;8.83;83.45;101236.53;5113650;28;20104;-69
2023/11/24 07:20:12;;;;;;;7.70;3.67;;;8.80;99.90;;;8.93;84.06;101207.63;5113342;28;20118;-69
2023/11/24 07:22:42;;;;;;;7.00;3.83;;;8.90;99.90;;;8.96;84.78;101222.59;5112451;28;20130;-69
2023/11/24 07:25:13;;;;;;;8.38;3.70;;;8.80;99.90;;;8.96;84.06;101219.97;5113937;28;20046;-69
2023/11/24 07:27:42;;;;;;;13.77;3.83;;;8.80;99.90;;;8.89;83.42;101220.75;5113635;28;20047;-69
2023/11/24 07:30:14;;;;;;;13.32;3.55;;;8.80;99.90;;;8.91;83.10;101206.72;5113304;28;20040;-69
2023/11/24 07:32:42;;;;;;;16.52;4.40;;;8.70;99.90;;;8.92;85.83;101204.97;5112941;28;20044;-69
2023/11/24 07:35:13;;;;;;;24.35;4.85;;;8.80;99.90;;;8.91;87.63;101201.44;5113147;28;20048;-69
2023/11/24 07:37:42;;;;;;;20.15;4.95;;;8.80;99.90;;;9.01;89.21;101202.41;5113030;28;20399;-69
2023/11/24 07:40:13;;;;;;;25.10;5.10;;;8.80;99.90;;;9.09;89.56;101201.59;5112843;28;20051;-69
2023/11/24 07:42:44;;;;;;;20.17;5.07;;;8.90;99.90;;;8.54;88.70;101108.84;5112966;28;20053;-69
2023/11/24 07:45:15;;;;;;;24.98;5.20;;;9.00;99.90;;;9.23;88.21;101217.53;5113335;28;20070;-69
2023/11/24 07:47:44;;;;;;;32.00;5.78;;;9.10;99.90;;;9.43;89.09;101213.22;5112850;28;20404;-69
2023/11/24 07:50:13;;;;;;;25.42;6.00;;;9.30;99.90;;;9.41;88.91;101225.53;5112779;28;20484;-70
2023/11/24 07:52:43;;;;;;;24.83;6.03;;;9.30;99.90;;;9.59;89.18;101227.41;5112966;28;20097;-70
2023/11/24 07:55:13;;;;;;;21.15;5.60;;;9.40;99.90;;;9.54;89.91;101224.72;5113073;28;20463;-69
2023/11/24 07:57:42;;;;;;;25.02;5.45;;;9.40;99.90;;;9.37;90.80;101218.47;5112563;28;20409;-69
2023/11/24 08:00:13;;;;;;;15.60;5.35;;;9.30;99.90;;;9.38;90.59;101235.19;5112829;28;20050;-69
2023/11/24 08:02:43;;;;;;;17.10;4.93;;;9.30;99.90;;;9.56;89.74;101215.06;5112401;28;20046;-69
2023/11/24 08:05:12;;;;;;;13.20;4.13;;;9.40;99.90;;;8.96;87.91;101209.41;5094792;28;20051;-69
2023/11/24 08:07:41;;;;;;;12.82;3.85;;;9.10;99.90;;;8.81;88.50;101239.16;5112667;28;20040;-70
2023/11/24 08:10:10;;;;;;;11.63;3.67;;;8.80;99.90;;;8.57;88.24;101216.97;5094694;28;20412;-69
2023/11/24 08:12:38;;;;;;;16.52;4.38;;;8.60;99.90;;;8.61;88.53;101219.69;5094433;28;20504;-69
2023/11/24 08:15:09;;;;;;;13.05;3.97;;;8.60;99.90;;;8.34;89.73;101186.88;5112813;28;20399;-69
2023/11/24 08:17:38;;;;;;;14.77;4.55;;;8.40;99.90;;;8.54;89.85;101207.28;5113133;28;20051;-69
2023/11/24 08:20:10;;;;;;;12.23;4.00;;;8.50;99.90;;;8.68;90.24;101234.66;5112400;28;20047;-69
2023/11/24 08:22:40;;;;;;;14.40;4.10;;;8.50;99.90;;;8.54;91.39;101195.84;5112508;28;20504;-69
2023/11/24 08:25:09;;;;;;;15.80;4.50;;;8.60;99.90;;;8.69;92.91;101217.97;5112448;28;20404;-69
2023/11/24 08:27:38;;;;;;;17.10;4.55;;;8.60;99.90;;;8.71;93.41;101196.91;5112788;28;20126;-69
2023/11/24 08:30:11;;;;;;;15.43;4.20;;;8.60;99.90;;;8.65;92.21;101192.44;5112948;28;20096;-69
2023/11/24 08:32:40;;;;;;;18.20;4.47;;;8.60;99.90;;;8.47;91.61;101157.13;5094424;28;20051;-69
2023/11/24 08:35:15;;;;;;;19.17;5.78;;;8.70;99.90;;;8.58;91.10;101200.28;5115162;28;20396;-69
2023/11/24 08:37:43;;;;;;;18.33;5.30;;;8.50;99.90;;;8.65;89.92;101195.06;5116341;28;20477;-69
2023/11/24 08:40:16;;;;;;;18.13;5.15;;;8.60;99.90;;;8.66;87.35;101188.06;5098185;28;20060;-69
2023/11/24 08:42:45;;;;;;;20.23;4.93;;;8.50;99.90;;;8.73;84.87;101193.38;5116034;28;20104;-68
2023/11/24 08:45:16;;;;;;;19.95;4.55;;;8.70;99.90;;;8.71;83.82;101189.00;5115881;28;20046;-69
2023/11/24 08:47:46;;;;;;;17.27;4.78;;;8.70;99.90;;;8.86;83.70;101175.91;5115773;28;20036;-69
2023/11/24 08:50:18;;;;;;;16.33;4.47;;;8.80;99.90;;;9.00;82.17;101167.22;5115748;28;20044;-69
2023/11/24 08:52:47;;;;;;;23.27;6.35;;;8.90;99.90;;;9.14;82.54;101182.28;5115591;28;20047;-69
2023/11/24 08:55:16;;;;;;;17.30;5.35;;;9.00;99.90;;;9.45;83.22;101193.00;5115926;28;20044;-69
2023/11/24 08:57:45;;;;;;;23.15;5.30;;;9.30;99.90;;;9.61;83.76;101194.84;5115405;28;20043;-69
2023/11/24 09:00:15;;;;;;;18.48;4.53;;;9.50;99.90;;;9.51;82.45;101181.56;5115623;28;20036;-69
2023/11/24 09:02:44;;;;;;;26.37;5.57;;;9.40;99.90;;;9.65;82.03;101174.63;5115498;28;20510;-69
2023/11/24 09:05:13;;;;;;;18.55;4.90;;;9.60;99.90;;;9.50;82.03;101169.28;5115518;28;20293;-69
2023/11/24 09:07:44;;;;;;;32.13;5.93;;;9.40;99.90;;;9.37;81.46;101156.91;5097385;28;20043;-69
2023/11/24 09:10:14;;;;;;;22.20;6.05;;;9.40;99.90;;;9.54;80.74;101166.63;5115448;28;20595;-69
2023/11/24 09:12:43;;;;;;;22.73;5.60;;;9.40;99.90;;;9.73;79.85;101187.00;5097208;28;20061;-69
2023/11/24 09:15:11;;;;;;;23.38;6.57;;;9.60;99.90;;;9.64;78.01;101152.59;5115293;28;20027;-69
2023/11/24 09:17:40;;;;;;;19.58;5.60;;;9.50;99.90;;;9.72;75.96;101164.06;5115203;28;20039;-69
2023/11/24 09:20:12;;;;;;;23.52;6.18;;;9.60;99.90;;;9.89;74.97;101169.44;5115162;28;20172;-68
2023/11/24 09:22:41;;;;;;;32.08;6.63;;;9.80;99.90;;;9.84;73.22;101150.91;5115756;28;20043;-69
2023/11/24 09:25:11;;;;;;;20.63;5.67;;;9.80;99.90;;;9.95;72.49;101158.84;5115139;28;20047;-69
2023/11/24 09:27:40;;;;;;;23.27;6.10;;;9.80;99.90;;;9.77;73.03;101158.81;5115128;28;20050;-69
2023/11/24 09:30:10;;;;;;;23.45;5.95;;;9.80;99.90;;;9.91;72.93;101170.31;5115028;28;20500;-69
2023/11/24 09:32:41;;;;;;;;;;;9.80;99.90;;;9.95;72.61;101165.03;5097147;28;20054;-69
2023/11/24 09:35:10;;;;;;;24.08;6.15;;;9.80;99.90;;;9.92;72.89;101159.75;5096609;28;19962;-69
2023/11/24 09:37:39;;;;;;;19.80;5.90;;;9.80;99.90;;;9.99;73.78;101157.97;5115118;28;20044;-69
2023/11/24 09:40:16;;;;;;;23.88;6.65;;;9.90;99.90;;;9.92;74.25;101149.19;5114970;28;20047;-69
2023/11/24 09:42:47;;;;;;;28.33;6.07;;;9.80;99.90;;;10.24;74.28;101146.63;5097002;28;20062;-69
2023/11/24 09:45:19;;;;;;;21.30;5.78;;;10.10;99.90;;;10.17;70.29;101133.38;5114372;28;20066;-69
2023/11/24 09:47:51;;;;;;;22.85;6.15;;;10.20;99.90;;;10.53;69.11;101160.75;5114651;28;20415;-69
2023/11/24 09:50:23;;;;;;;20.45;5.70;;;10.40;99.90;;;10.76;67.39;101163.41;5114579;28;20035;-69
2023/11/24 09:52:55;;;;;;;25.20;5.78;;;10.60;99.90;;;10.82;66.89;101155.44;5114435;28;20415;-69
2023/11/24 09:55:28;;;;;;;23.73;5.93;;;10.70;99.90;;;11.22;66.26;101150.97;5114518;28;20488;-69
2023/11/24 09:57:57;;;;;;;27.63;6.07;;;11.10;99.90;;;11.28;64.89;101157.16;5096500;28;20108;-69
2023/11/24 10:00:27;;;;;;;29.90;6.22;;;11.30;99.90;;;11.18;64.66;101130.69;5114668;28;20503;-69
2023/11/24 10:03:00;;;;;;;24.58;5.82;;;11.30;99.90;;;11.34;64.86;101161.53;5114395;28;20042;-69
2023/11/24 10:05:30;;;;;;;27.08;6.45;;;11.30;99.90;;;11.25;65.50;101164.19;5114646;28;20093;-69
2023/11/24 10:08:00;;;;;;;26.35;6.25;;;11.20;99.90;;;10.92;66.12;101167.78;5114426;28;20050;-70
2023/11/24 10:10:30;;;;;;;24.95;5.10;;;11.00;99.90;;;11.01;64.18;101183.69;5114222;28;20041;-69
2023/11/24 10:13:01;;;;;;;20.58;5.05;;;10.90;99.90;;;10.58;64.28;101171.34;5114339;28;20054;-70
2023/11/24 10:15:32;;;;;;;16.52;4.95;;;10.60;99.90;;;10.63;64.24;101156.34;5114684;28;20066;-70
2023/11/24 10:18:02;;;;;;;18.17;4.95;;;10.50;99.90;;;10.83;63.30;101168.69;5114341;28;20063;-70
2023/11/24 10:20:31;;;;;;;16.98;5.38;;;10.70;99.90;;;10.93;63.86;101156.34;5096001;28;20071;-70